Time;durP1;ratioP1;P1;durP2;ratioP2;P2;SDS_P1;SDS_P2;PMS_P1;PMS_P2;Temp;Humidity;BMP_temperature;BMP_pressure;BME280_temperature;BME280_humidity;BME280_pressure;Samples;Min_cycle;Max_cycle;Signal;HPM_P1;HPM_P2
2022/01/11 00:00:46;;;;;;;;;;;;;;;12.32;100.00;99555.13;5094171;28;19930;-77
2022/01/11 00:03:14;;;;;;;;;;;;;;;12.23;100.00;99563.25;5075898;28;19932;-77
2022/01/11 00:05:55;;;;;;;;;;;;;;;12.53;100.00;99568.78;5094269;28;19924;-77
2022/01/11 00:08:30;;;;;;;;;;;;;;;12.27;100.00;99569.59;5076239;28;19928;-77
2022/01/11 00:11:05;;;;;;;;;;;;;;;12.25;100.00;99577.63;5076168;28;19924;-77
2022/01/11 00:13:33;;;;;;;;;;;;;;;12.27;100.00;99574.38;5075942;28;20376;-77
2022/01/11 00:16:01;;;;;;;;;;;;;;;12.23;100.00;99574.47;5076189;28;19924;-77
2022/01/11 00:18:28;;;;;;;;;;;;;;;12.31;100.00;99577.97;5075639;28;19946;-77
2022/01/11 00:20:56;;;;;;;;;;;;;;;12.37;100.00;99585.44;5093897;28;19924;-77
2022/01/11 00:25:51;;;;;;;;;;;;;;;12.72;100.00;99579.28;5075740;28;19924;-77
2022/01/11 00:28:19;;;;;;;;;;;;;;;12.61;100.00;99580.69;5075781;28;20420;-77
2022/01/11 00:31:13;;;;;;;;;;;;;;;12.46;100.00;99577.28;5072624;28;20018;-77
2022/01/11 00:33:45;;;;;;;;;;;;;;;12.48;100.00;99588.88;5075545;28;20371;-77
2022/01/11 00:36:13;;;;;;;;;;;;;;;12.77;100.00;99587.22;5058958;28;19924;-74
2022/01/11 00:38:41;;;;;;;;;;;;;;;12.93;100.00;99588.56;5042438;28;19924;-74
2022/01/11 00:41:10;;;;;;;;;;;;;;;12.77;100.00;99584.41;5075552;28;19967;-74
2022/01/11 00:43:37;;;;;;;;;;;;;;;12.74;100.00;99581.66;5059130;28;20011;-74
2022/01/11 00:46:05;;;;;;;;;;;;;;;12.66;100.00;99597.81;5062552;28;19924;-74
2022/01/11 00:48:33;;;;;;;;;;;;;;;12.86;100.00;99595.09;5097269;28;20087;-74
2022/01/11 00:51:00;;;;;;;;;;;;;;;12.82;100.00;99597.16;5097398;28;19947;-74
2022/01/11 00:53:27;;;;;;;;;;;;;;;12.85;100.00;99598.31;5062547;28;20070;-74
2022/01/11 00:55:54;;;;;;;;;;;;;;;12.98;100.00;99599.31;5079310;28;19931;-74
2022/01/11 00:58:22;;;;;;;;;;;;;;;12.62;100.00;99599.88;5065151;28;19924;-74
2022/01/11 01:00:49;;;;;;;;;;;;;;;12.77;100.00;99597.63;5055608;28;20024;-74
2022/01/11 01:03:16;;;;;;;;;;;;;;;12.91;100.00;99603.03;5055528;28;19924;-74
2022/01/11 01:05:43;;;;;;;;;;;;;;;12.91;100.00;99602.22;5055530;28;19925;-74
2022/01/11 01:08:11;;;;;;;;;;;;;;;12.81;100.00;99597.59;5055564;28;19975;-74
2022/01/11 01:10:45;;;;;;;;;;;;;;;12.98;100.00;99596.50;5039022;28;19931;-74
2022/01/11 01:13:20;;;;;;;;;;;;;;;12.96;100.00;99607.34;5023013;28;20279;-74
2022/01/11 01:15:53;;;;;;;;;;;;;;;13.13;100.00;99606.28;5039385;28;19991;-74
2022/01/11 01:18:30;;;;;;;;;;;;;;;13.20;100.00;99606.16;5038637;28;19925;-74
2022/01/11 01:20:59;;;;;;;;;;;;;;;12.95;100.00;99608.56;5055341;28;19970;-74
2022/01/11 01:23:27;;;;;;;;;;;;;;;13.02;100.00;99619.69;5055369;28;19925;-74
2022/01/11 01:25:55;;;;;;;;;;;;;;;13.13;100.00;99614.72;5055218;28;20019;-73
2022/01/11 01:28:22;;;;;;;;;;;;;;;12.96;100.00;99621.38;5055000;28;19975;-74
2022/01/11 01:30:49;;;;;;;;;;;;;;;12.74;100.00;99627.31;5038413;28;19932;-74
2022/01/11 01:33:16;;;;;;;;;;;;;;;12.81;100.00;99636.84;5034977;28;20019;-74
2022/01/11 01:35:49;;;;;;;;;;;;;;;12.68;100.00;99629.03;5051607;28;20019;-74
2022/01/11 01:38:22;;;;;;;;;;;;;;;12.63;100.00;99635.09;5051607;28;19925;-74
2022/01/11 01:40:50;;;;;;;;;;;;;;;12.78;100.00;99630.84;5051633;28;19925;-74
2022/01/11 01:43:18;;;;;;;;;;;;;;;12.96;100.00;99629.78;5036151;28;20059;-74
2022/01/11 01:45:45;;;;;;;;;;;;;;;12.88;100.00;99628.31;5034678;28;19925;-74
2022/01/11 01:48:12;;;;;;;;;;;;;;;12.96;100.00;99638.19;5051330;28;19961;-74
2022/01/11 01:50:39;;;;;;;;;;;;;;;12.85;100.00;99648.78;5034876;28;19925;-73
2022/01/11 01:53:10;;;;;;;;;;;;;;;12.74;100.00;99646.16;5002343;28;19925;-74
2022/01/11 01:55:39;;;;;;;;;;;;;;;12.46;100.00;99652.97;5035790;28;19925;-76
2022/01/11 01:58:06;;;;;;;;;;;;;;;12.27;100.00;99664.06;5034487;28;20014;-77
2022/01/11 02:00:40;;;;;;;;;;;;;;;12.11;100.00;99678.69;5034185;28;19928;-76
2022/01/11 02:03:12;;;;;;;;;;;;;;;12.22;100.00;99672.94;5051228;28;19925;-76
2022/01/11 02:05:40;;;;;;;;;;;;;;;12.29;100.00;99679.25;5017790;28;19925;-76
2022/01/11 02:08:08;;;;;;;;;;;;;;;12.22;100.00;99681.34;5050458;28;20020;-76
2022/01/11 02:10:38;;;;;;;;;;;;;;;12.23;100.00;99692.13;5050712;28;19964;-76
2022/01/11 02:13:08;;;;;;;;;;;;;;;12.29;100.00;99684.84;5017029;28;19925;-77
2022/01/11 02:15:35;;;;;;;;;;;;;;;12.08;100.00;99685.13;5066974;28;19964;-77
2022/01/11 02:18:18;;;;;;;;;;;;;;;12.02;100.00;99689.59;5034086;28;19925;-76
2022/01/11 02:20:46;;;;;;;;;;;;;;;11.91;100.00;99699.31;5050957;28;19932;-76
2022/01/11 02:23:20;;;;;;;;;;;;;;;11.70;100.00;99703.16;5050741;28;19932;-76
2022/01/11 02:25:48;;;;;;;;;;;;;;;11.91;100.00;99702.94;5050730;28;19925;-76
2022/01/11 02:28:17;;;;;;;;;;;;;;;12.21;100.00;99716.16;5033666;28;19925;-76
2022/01/11 02:30:44;;;;;;;;;;;;;;;12.09;100.00;99713.91;5001243;28;19932;-76
2022/01/11 02:33:32;;;;;;;;;;;;;;;12.18;100.00;99715.00;5053851;28;20345;-76
2022/01/11 02:36:16;;;;;;;;;;;;;;;12.40;100.00;99719.13;5037259;28;19928;-76
2022/01/11 02:38:43;;;;;;;;;;;;;;;12.47;100.00;99718.25;5053673;28;19936;-76
2022/01/11 02:41:10;;;;;;;;;;;;;;;12.35;100.00;99716.81;5020450;28;19925;-76
2022/01/11 02:43:41;;;;;;;;;;;;;;;12.24;100.00;99716.13;5036760;28;20017;-76
2022/01/11 02:46:10;;;;;;;;;;;;;;;12.06;100.00;99715.56;5054911;28;19925;-76
2022/01/11 02:48:40;;;;;;;;;;;;;;;12.14;100.00;99719.88;5053553;28;19932;-76
2022/01/11 02:51:08;;;;;;;;;;;;;;;12.36;100.00;99721.19;5053516;28;19928;-76
2022/01/11 02:53:43;;;;;;;;;;;;;;;12.49;100.00;99725.03;5053486;28;19925;-76
2022/01/11 02:56:13;;;;;;;;;;;;;;;12.68;100.00;99729.97;5053392;28;19929;-76
2022/01/11 02:58:40;;;;;;;;;;;;;;;12.78;100.00;99740.22;5061065;28;19924;-76
2022/01/11 03:01:09;;;;;;;;;;;;;;;12.78;100.00;99734.63;5037225;28;19929;-76
2022/01/11 03:03:37;;;;;;;;;;;;;;;12.72;100.00;99730.69;5036605;28;19939;-76
2022/01/11 03:06:05;;;;;;;;;;;;;;;12.69;100.00;99725.94;5036590;28;19929;-76
2022/01/11 03:08:42;;;;;;;;;;;;;;;12.77;100.00;99730.25;5052739;28;19924;-76
2022/01/11 03:11:14;;;;;;;;;;;;;;;12.55;100.00;99733.75;5053035;28;19948;-76
2022/01/11 03:13:43;;;;;;;;;;;;;;;12.59;100.00;99740.91;5053097;28;19925;-76
2022/01/11 03:16:10;;;;;;;;;;;;;;;12.48;100.00;99745.06;5036461;28;19932;-76
2022/01/11 03:18:37;;;;;;;;;;;;;;;12.56;100.00;99750.16;5053195;28;20237;-76
2022/01/11 03:21:06;;;;;;;;;;;;;;;12.65;100.00;99758.84;5052969;28;19932;-76
2022/01/11 03:23:33;;;;;;;;;;;;;;;12.78;100.00;99762.66;5036433;28;19925;-77
2022/01/11 03:26:03;;;;;;;;;;;;;;;12.77;100.00;99757.47;5052712;28;20023;-77
2022/01/11 03:28:33;;;;;;;;;;;;;;;12.73;100.00;99754.75;5052858;28;19979;-77
2022/01/11 03:31:02;;;;;;;;;;;;;;;12.85;100.00;99763.78;5036292;28;20019;-77
2022/01/11 03:33:39;;;;;;;;;;;;;;;13.04;100.00;99765.97;5034983;28;19941;-77
2022/01/11 03:36:07;;;;;;;;;;;;;;;12.96;100.00;99761.63;5049890;28;19932;-77
2022/01/11 03:38:34;;;;;;;;;;;;;;;12.98;100.00;99764.81;5035250;28;19928;-77
2022/01/11 03:41:07;;;;;;;;;;;;;;;12.70;100.00;99766.00;5051791;28;19925;-77
2022/01/11 03:43:34;;;;;;;;;;;;;;;12.80;100.00;99765.03;5052161;28;19987;-77
2022/01/11 03:46:03;;;;;;;;;;;;;;;12.69;100.00;99773.59;5043933;28;20014;-77
2022/01/11 03:48:30;;;;;;;;;;;;;;;12.82;100.00;99771.03;5016019;28;19925;-77
2022/01/11 03:50:57;;;;;;;;;;;;;;;12.65;100.00;99769.25;5016068;28;19932;-77
2022/01/11 03:53:54;;;;;;;;;;;;;;;12.72;100.00;99775.56;5016106;28;19929;-77
2022/01/11 03:56:26;;;;;;;;;;;;;;;12.51;100.00;99786.28;5032281;28;19972;-77
2022/01/11 03:59:06;;;;;;;;;;;;;;;12.45;100.00;99783.13;5032305;28;20014;-77
2022/01/11 04:01:34;;;;;;;;;;;;;;;12.44;100.00;99783.53;5049121;28;19964;-77
2022/01/11 04:04:02;;;;;;;;;;;;;;;12.40;100.00;99786.38;5016028;28;19984;-77
2022/01/11 04:06:29;;;;;;;;;;;;;;;12.57;100.00;99793.78;5032491;28;19925;-77
2022/01/11 04:08:56;;;;;;;;;;;;;;;12.58;100.00;99794.59;5032253;28;20308;-77
2022/01/11 04:11:24;;;;;;;;;;;;;;;12.12;100.00;99802.72;5015964;28;20296;-77
2022/01/11 04:13:52;;;;;;;;;;;;;;;12.60;100.00;99798.56;5032443;28;19932;-77
2022/01/11 04:16:22;;;;;;;;;;;;;;;12.59;100.00;99813.78;5032454;28;19933;-77
2022/01/11 04:18:50;;;;;;;;;;;;;;;12.42;100.00;99814.78;5016315;28;19925;-77
2022/01/11 04:21:19;;;;;;;;;;;;;;;12.16;100.00;99815.47;5036321;28;19925;-77
2022/01/11 04:23:50;;;;;;;;;;;;;;;12.37;100.00;99820.84;5019827;28;19931;-77
2022/01/11 04:26:17;;;;;;;;;;;;;;;12.53;100.00;99826.69;5019738;28;19983;-77
2022/01/11 04:28:45;;;;;;;;;;;;;;;12.32;100.00;99826.13;5019875;28;19925;-77
2022/01/11 04:31:13;;;;;;;;;;;;;;;12.09;100.00;99832.38;5036211;28;19931;-77
2022/01/11 04:33:43;;;;;;;;;;;;;;;11.35;100.00;99826.56;5047794;28;19925;-77
2022/01/11 04:36:12;;;;;;;;;;;;;;;11.94;100.00;99839.31;5039729;28;19979;-77
2022/01/11 04:38:39;;;;;;;;;;;;;;;11.69;100.00;99830.31;5055706;28;19997;-77
2022/01/11 04:41:07;;;;;;;;;;;;;;;11.73;100.00;99842.31;5055991;28;19932;-77
2022/01/11 04:43:39;;;;;;;;;;;;;;;12.01;100.00;99844.06;5039296;28;20411;-77
2022/01/11 04:46:06;;;;;;;;;;;;;;;11.28;100.00;99846.22;5055955;28;19925;-77
2022/01/11 04:48:34;;;;;;;;;;;;;;;11.61;100.00;99856.78;5039134;28;19947;-77
2022/01/11 04:51:05;;;;;;;;;;;;;;;12.05;100.00;99865.22;5039257;28;19932;-77
2022/01/11 04:53:32;;;;;;;;;;;;;;;12.36;100.00;99857.69;5039149;28;19924;-77
2022/01/11 04:56:01;;;;;;;;;;;;;;;12.42;100.00;99856.03;5039429;28;19925;-77
2022/01/11 04:58:29;;;;;;;;;;;;;;;12.28;100.00;99856.97;5045200;28;20393;-77
2022/01/11 05:00:56;;;;;;;;;;;;;;;12.17;100.00;99853.50;5078995;28;19931;-77
2022/01/11 05:03:26;;;;;;;;;;;;;;;12.39;100.00;99863.28;5079229;28;20015;-77
2022/01/11 05:05:59;;;;;;;;;;;;;;;12.20;100.00;99863.06;5063413;28;19924;-77
2022/01/11 05:08:27;;;;;;;;;;;;;;;11.84;100.00;99871.03;5078656;28;19924;-77
2022/01/11 05:10:56;;;;;;;;;;;;;;;11.86;100.00;99874.19;5062715;28;19931;-77
2022/01/11 05:13:23;;;;;;;;;;;;;;;12.02;100.00;99882.88;5078825;28;19969;-77
2022/01/11 05:15:51;;;;;;;;;;;;;;;12.19;100.00;99876.28;5079033;28;20303;-77
2022/01/11 05:18:19;;;;;;;;;;;;;;;11.86;100.00;99881.81;5062096;28;19924;-77
2022/01/11 05:20:46;;;;;;;;;;;;;;;12.02;100.00;99880.06;5078802;28;19931;-77
2022/01/11 05:23:14;;;;;;;;;;;;;;;12.21;100.00;99885.06;5045091;28;19931;-77
2022/01/11 05:25:42;;;;;;;;;;;;;;;12.24;100.00;99886.25;5078564;28;20001;-77
2022/01/11 05:28:09;;;;;;;;;;;;;;;12.05;100.00;99904.44;5061900;28;19924;-77
2022/01/11 05:30:37;;;;;;;;;;;;;;;12.31;100.00;99912.19;5061349;28;19924;-77
2022/01/11 05:33:05;;;;;;;;;;;;;;;12.44;100.00;99899.25;5078712;28;19976;-77
2022/01/11 05:35:33;;;;;;;;;;;;;;;12.18;100.00;99908.31;5095251;28;19924;-77
2022/01/11 05:38:00;;;;;;;;;;;;;;;12.23;100.00;99905.09;5078193;28;20360;-77
2022/01/11 05:40:27;;;;;;;;;;;;;;;12.34;100.00;99908.56;5078204;28;20018;-77
2022/01/11 05:43:02;;;;;;;;;;;;;;;12.18;100.00;99913.13;5083173;28;20367;-77
2022/01/11 05:45:30;;;;;;;;;;;;;;;12.25;100.00;99913.84;5078187;28;19931;-77
2022/01/11 05:47:58;;;;;;;;;;;;;;;12.21;100.00;99917.91;5078148;28;19954;-77
2022/01/11 05:50:25;;;;;;;;;;;;;;;12.12;100.00;99920.38;5061360;28;19989;-77
2022/01/11 05:52:52;;;;;;;;;;;;;;;12.30;100.00;99926.63;5078272;28;20313;-77
2022/01/11 05:55:20;;;;;;;;;;;;;;;12.16;100.00;99927.53;5045451;28;20007;-77
2022/01/11 05:57:47;;;;;;;;;;;;;;;12.13;100.00;99925.56;5078319;28;19924;-77
2022/01/11 06:00:18;;;;;;;;;;;;;;;12.10;100.00;99929.19;5077667;28;19928;-77
2022/01/11 06:02:52;;;;;;;;;;;;;;;12.09;100.00;99924.00;5061603;28;20406;-77
2022/01/11 06:05:28;;;;;;;;;;;;;;;12.17;100.00;99929.16;5077883;28;19990;-77
2022/01/11 06:07:55;;;;;;;;;;;;;;;12.26;100.00;99932.28;5077829;28;19924;-77
2022/01/11 06:10:23;;;;;;;;;;;;;;;12.36;100.00;99930.56;5094634;28;19924;-77
2022/01/11 06:12:50;;;;;;;;;;;;;;;12.32;100.00;99933.41;5077856;28;19924;-77
2022/01/11 06:15:17;;;;;;;;;;;;;;;12.35;100.00;99940.19;5077978;28;19924;-77
2022/01/11 06:17:46;;;;;;;;;;;;;;;12.23;100.00;99941.50;5061110;28;19985;-77
2022/01/11 06:20:13;;;;;;;;;;;;;;;12.38;100.00;99950.56;5077369;28;20329;-77
2022/01/11 06:22:42;;;;;;;;;;;;;;;12.28;100.00;99946.66;5077839;28;19931;-77
2022/01/11 06:25:09;;;;;;;;;;;;;;;12.17;100.00;99951.56;5044300;28;19950;-77
2022/01/11 06:27:40;;;;;;;;;;;;;;;12.19;100.00;99959.56;5060705;28;19924;-77
2022/01/11 06:30:10;;;;;;;;;;;;;;;12.14;100.00;99963.59;5094476;28;19924;-77
2022/01/11 06:32:38;;;;;;;;;;;;;;;12.01;100.00;99964.50;5077476;28;19932;-76
2022/01/11 06:35:06;;;;;;;;;;;;;;;12.20;100.00;99961.94;5077007;28;19924;-77
2022/01/11 06:37:35;;;;;;;;;;;;;;;12.13;100.00;99961.22;5044300;28;19928;-77
2022/01/11 06:40:05;;;;;;;;;;;;;;;12.13;100.00;99964.00;5060600;28;20359;-77
2022/01/11 06:42:33;;;;;;;;;;;;;;;11.81;100.00;99971.84;5076567;28;20379;-77
2022/01/11 06:45:00;;;;;;;;;;;;;;;11.90;100.00;99973.00;5093360;28;20351;-77
2022/01/11 06:47:28;;;;;;;;;;;;;;;12.15;100.00;99976.38;5076411;28;19940;-76
2022/01/11 06:49:55;;;;;;;;;;;;;;;12.07;100.00;99968.47;5075986;28;19931;-76
2022/01/11 06:53:52;;;;;;;;;;;;;;;12.23;100.00;99989.13;5111506;27;19920;-76
2022/01/11 06:56:21;;;;;;;;;;;;;;;11.98;100.00;99984.94;5110172;28;20431;-76
2022/01/11 06:58:51;;;;;;;;;;;;;;;11.86;100.00;99989.00;5109811;28;20385;-77
2022/01/11 07:01:20;;;;;;;;;;;;;;;11.51;100.00;99997.56;5093996;28;19931;-76
2022/01/11 07:03:49;;;;;;;;;;;;;;;10.76;100.00;100001.03;5073109;28;19931;-77
2022/01/11 07:06:40;;;;;;;;;;;;;;;11.09;100.00;100003.34;5091200;28;20298;-76
2022/01/11 07:09:07;;;;;;;;;;;;;;;11.55;100.00;100003.97;5089953;28;20287;-77
2022/01/11 07:11:36;;;;;;;;;;;;;;;10.94;100.00;100002.59;5089982;28;20011;-76
2022/01/11 07:14:04;;;;;;;;;;;;;;;11.28;100.00;100008.50;5101757;28;20488;-77
2022/01/11 07:16:33;;;;;;;;;;;;;;;10.99;100.00;100009.78;5093616;28;20456;-76
2022/01/11 07:19:01;;;;;;;;;;;;;;;11.51;100.00;100016.38;5092929;28;19931;-76
2022/01/11 07:21:28;;;;;;;;;;;;;;;10.95;100.00;100026.56;5076619;28;19924;-77
2022/01/11 07:23:56;;;;;;;;;;;;;;;11.26;100.00;100035.25;5093577;28;19932;-77
2022/01/11 07:26:23;;;;;;;;;;;;;;;10.92;100.00;100046.13;5110132;28;19977;-76
2022/01/11 07:28:51;;;;;;;;;;;;;;;10.73;100.00;100050.16;5071372;28;19931;-76
2022/01/11 07:31:19;;;;;;;;;;;;;;;10.53;100.00;100056.56;5088574;28;20045;-76
2022/01/11 07:33:51;;;;;;;;;;;;;;;10.48;100.00;100066.13;5090100;28;20378;-76
2022/01/11 07:36:19;;;;;;;;;;;;;;;11.00;100.00;100067.28;5110914;28;19963;-76
2022/01/11 07:38:52;;;;;;;;;;;;;;;11.33;100.00;100072.41;5089625;28;20356;-76
2022/01/11 07:41:25;;;;;;;;;;;;;;;10.95;100.00;100071.28;5084525;28;19924;-76
2022/01/11 07:44:11;;;;;;;;;;;;;;;10.77;100.00;100080.91;5105151;28;20298;-76
2022/01/11 07:46:40;;;;;;;;;;;;;;;10.25;100.00;100085.25;5092847;28;20058;-76
2022/01/11 07:49:12;;;;;;;;;;;;;;;10.28;100.00;100103.25;5076720;28;19924;-76
2022/01/11 07:51:40;;;;;;;;;;;;;;;10.30;100.00;100104.44;5077717;28;19924;-76
2022/01/11 07:54:08;;;;;;;;;;;;;;;10.65;100.00;100112.03;5113096;28;20004;-76
2022/01/11 07:56:37;;;;;;;;;;;;;;;10.49;100.00;100108.84;5096024;28;19924;-76
2022/01/11 07:59:05;;;;;;;;;;;;;;;10.45;100.00;100116.44;5093274;28;19924;-76
2022/01/11 08:01:37;;;;;;;;;;;;;;;10.34;100.00;100130.41;5112722;28;19927;-77
2022/01/11 08:04:06;;;;;;;;;;;;;;;10.27;100.00;100129.59;5071400;28;20333;-75
2022/01/11 08:06:42;;;;;;;;;;;;;;;10.35;100.00;100131.19;5097260;28;20004;-75
2022/01/11 08:09:17;;;;;;;;;;;;;;;10.64;100.00;100132.81;5099050;28;19924;-75
2022/01/11 08:11:45;;;;;;;;;;;;;;;10.81;100.00;100138.41;5082079;28;19928;-76
2022/01/11 08:14:11;;;;;;;;;;;;;;;10.81;100.00;100138.41;5099135;28;19967;-76
2022/01/11 08:16:39;;;;;;;;;;;;;;;10.21;100.00;100137.53;5081796;28;19931;-77
2022/01/11 08:19:07;;;;;;;;;;;;;;;10.50;100.00;100152.38;5099181;28;20275;-75
2022/01/11 08:21:36;;;;;;;;;;;;;;;10.42;100.00;100159.16;5078668;28;19924;-75
2022/01/11 08:24:04;;;;;;;;;;;;;;;10.43;100.00;100160.75;5078788;28;19924;-75
2022/01/11 08:26:31;;;;;;;;;;;;;;;10.41;100.00;100165.91;5078465;28;19932;-75
2022/01/11 08:28:58;;;;;;;;;;;;;;;11.02;100.00;100162.78;5074799;28;19932;-76
2022/01/11 08:31:25;;;;;;;;;;;;;;;11.05;100.00;100172.38;5089247;28;20404;-76
2022/01/11 08:33:54;;;;;;;;;;;;;;;10.68;100.00;100183.94;5078873;28;19928;-76
2022/01/11 08:36:22;;;;;;;;;;;;;;;10.78;100.00;100180.34;5116722;28;19924;-76
2022/01/11 08:38:49;;;;;;;;;;;;;;;11.30;100.00;100171.13;5078602;28;20431;-76
2022/01/11 08:41:19;;;;;;;;;;;;;;;11.59;100.00;100175.50;5050623;28;19924;-76
2022/01/11 08:43:46;;;;;;;;;;;;;;;11.69;100.00;100176.69;5079042;28;19924;-76
2022/01/11 08:46:16;;;;;;;;;;;;;;;11.73;100.00;100183.06;5095867;28;19924;-78
2022/01/11 08:49:04;;;;;;;;;;;;;;;11.72;100.00;100198.28;5080802;28;19931;-76
2022/01/11 08:51:34;;;;;;;;;;;;;;;11.30;100.00;100199.13;5081279;28;19931;-76
2022/01/11 08:54:01;;;;;;;;;;;;;;;11.05;100.00;100203.94;5092475;28;19946;-78
2022/01/11 08:56:32;;;;;;;;;;;;;;;11.15;100.00;100203.13;5073253;28;19927;-77
2022/01/11 08:58:59;;;;;;;;;;;;;;;11.40;100.00;100214.31;5092366;28;19934;-78
2022/01/11 09:01:31;;;;;;;;;;;;;;;11.57;100.00;100203.06;5093978;28;19931;-77
2022/01/11 09:04:00;;;;;;;;;;;;;;;11.76;100.00;100211.06;5077197;28;19931;-78
2022/01/11 09:06:28;;;;;;;;;;;;;;;11.86;100.00;100213.03;5093656;28;19931;-78
2022/01/11 09:09:13;;;;;;;;;;;;;;;11.65;100.00;100204.69;5077134;28;19935;-78
2022/01/11 09:11:42;;;;;;;;;;;;;;;11.80;100.00;100220.25;5077250;28;19927;-78
2022/01/11 09:14:12;;;;;;;;;;;;;;;11.74;100.00;100219.06;5093840;28;19931;-78
2022/01/11 09:16:39;;;;;;;;;;;;;;;11.53;100.00;100229.47;5076517;28;19955;-78
2022/01/11 09:19:09;;;;;;;;;;;;;;;11.35;100.00;100232.31;5076764;28;19960;-77
2022/01/11 09:21:36;;;;;;;;;;;;;;;11.78;100.00;100225.47;5093987;28;19924;-78
2022/01/11 09:24:03;;;;;;;;;;;;;;;11.83;100.00;100238.28;5076720;28;19931;-78
2022/01/11 09:26:35;;;;;;;;;;;;;;;11.96;100.00;100245.03;5089805;28;19935;-78
2022/01/11 09:29:02;;;;;;;;;;;;;;;11.55;100.00;100244.69;5092610;28;19953;-77
2022/01/11 09:31:31;;;;;;;;;;;;;;;11.60;100.00;100247.06;5094033;28;20007;-78
2022/01/11 09:34:01;;;;;;;;;;;;;;;11.16;100.00;100252.31;5076578;28;19932;-80
2022/01/11 09:36:29;;;;;;;;;;;;;;;11.41;100.00;100247.50;5076529;28;19924;-77
2022/01/11 09:38:57;;;;;;;;;;;;;;;11.47;100.00;100253.47;5094307;28;20022;-83
2022/01/11 09:41:24;;;;;;;;;;;;;;;11.41;100.00;100260.66;5093265;28;19931;-78
2022/01/11 09:43:52;;;;;;;;;;;;;;;11.60;100.00;100263.84;5092595;28;19924;-76
2022/01/11 09:46:19;;;;;;;;;;;;;;;11.85;100.00;100269.44;5088220;27;19936;-77
2022/01/11 09:48:48;;;;;;;;;;;;;;;11.72;100.00;100271.09;5108208;27;19939;-76
2022/01/11 09:51:19;;;;;;;;;;;;;;;11.95;100.00;100263.81;5095566;27;19924;-76
2022/01/11 09:53:47;;;;;;;;;;;;;;;12.04;100.00;100266.22;5089656;28;19931;-76
2022/01/11 09:56:14;;;;;;;;;;;;;;;11.93;100.00;100269.06;5087577;28;19924;-76
2022/01/11 09:58:43;;;;;;;;;;;;;;;12.02;100.00;100269.44;5085603;28;20298;-75
2022/01/11 10:01:42;;;;;;;;;;;;;;;12.26;100.00;100274.16;5015478;28;19925;-76
2022/01/11 10:04:32;;;;;;;;;;;;;;;12.34;100.00;100275.69;5040140;28;19925;-75
2022/01/11 10:07:17;;;;;;;;;;;;;;;12.38;100.00;100281.31;5028440;28;19956;-74
2022/01/11 10:09:48;;;;;;;;;;;;;;;12.30;100.00;100288.94;5009189;28;20324;-75
2022/01/11 10:12:18;;;;;;;;;;;;;;;12.27;100.00;100286.94;5030487;28;20394;-74
2022/01/11 10:14:47;;;;;;;;;;;;;;;12.45;100.00;100292.47;5029008;28;19974;-74
2022/01/11 10:17:16;;;;;;;;;;;;;;;12.02;100.00;100288.22;5031069;28;19929;-75
2022/01/11 10:20:07;;;;;;;;;;;;;;;12.52;100.00;100293.28;5030835;28;20473;-74
2022/01/11 10:22:54;;;;;;;;;;;;;;;12.56;100.00;100298.84;5029815;28;20011;-75
2022/01/11 10:25:23;;;;;;;;;;;;;;;12.65;100.00;100291.59;5047863;28;19925;-73
2022/01/11 10:27:57;;;;;;;;;;;;;;;12.72;100.00;100297.16;5047406;28;19932;-73
2022/01/11 10:30:26;;;;;;;;;;;;;;;12.34;100.00;100297.34;5030850;28;19933;-80
2022/01/11 10:33:06;;;;;;;;;;;;;;;12.74;100.00;100300.34;5047258;28;19925;-75
2022/01/11 10:35:42;;;;;;;;;;;;;;;12.26;100.00;100302.16;5047393;28;19929;-74
2022/01/11 10:38:28;;;;;;;;;;;;;;;11.37;100.00;100305.47;5068690;28;19963;-77
2022/01/11 10:41:01;;;;;;;;;;;;;;;11.80;100.00;100307.06;5068792;28;20587;-77
2022/01/11 10:43:41;;;;;;;;;;;;;;;12.14;100.00;100302.59;5068678;28;19924;-82
2022/01/11 10:46:10;;;;;;;;;;;;;;;12.71;100.00;100305.97;5051285;28;19933;-77
2022/01/11 10:48:39;;;;;;;;;;;;;;;12.74;100.00;100294.75;5068771;28;20444;-77
2022/01/11 10:51:12;;;;;;;;;;;;;;;11.94;100.00;100309.03;5089568;28;20407;-77
2022/01/11 10:53:41;;;;;;;;;;;;;;;12.69;100.00;100309.19;5088996;28;19924;-77
2022/01/11 10:56:10;;;;;;;;;;;;;;;12.65;100.00;100305.63;5088537;28;19924;-77
2022/01/11 10:59:07;;;;;;;;;;;;;;;12.60;100.00;100317.25;5088684;28;19932;-77
2022/01/11 11:01:35;;;;;;;;;;;;;;;13.00;100.00;100317.88;5067223;28;20732;-77
2022/01/11 11:04:04;;;;;;;;;;;;;;;12.92;100.00;100319.88;5081302;28;19924;-77
2022/01/11 11:06:32;;;;;;;;;;;;;;;13.04;100.00;100325.06;5089133;28;20351;-79
2022/01/11 11:09:06;;;;;;;;;;;;;;;13.17;100.00;100316.97;5069082;28;19970;-78
2022/01/11 11:11:41;;;;;;;;;;;;;;;13.15;100.00;100325.00;5053962;28;20311;-74
2022/01/11 11:14:48;;;;;;;;;;;;;;;13.25;100.00;100318.53;5068378;28;20435;-74
2022/01/11 11:17:25;;;;;;;;;;;;;;;12.93;100.00;100326.31;5068280;28;19924;-78
2022/01/11 11:19:54;;;;;;;;;;;;;;;13.20;100.00;100328.19;5084805;28;19982;-73
2022/01/11 11:22:22;;;;;;;;;;;;;;;13.49;100.00;100331.56;5068366;28;19925;-76
2022/01/11 11:24:50;;;;;;;;;;;;;;;13.72;100.00;100326.97;5070003;28;19931;-73
2022/01/11 11:27:17;;;;;;;;;;;;;;;13.70;100.00;100317.34;5086606;28;19931;-74
2022/01/11 11:29:44;;;;;;;;;;;;;;;13.53;100.00;100319.09;5081309;28;19986;-77
2022/01/11 11:32:12;;;;;;;;;;;;;;;13.44;100.00;100320.78;5086046;28;20027;-75
2022/01/11 11:34:40;;;;;;;;;;;;;;;13.63;100.00;100328.66;5088027;28;19924;-76
2022/01/11 11:37:08;;;;;;;;;;;;;;;13.39;100.00;100324.81;5071729;28;20348;-78
2022/01/11 11:39:37;;;;;;;;;;;;;;;13.50;100.00;100324.75;5089369;28;19932;-73
2022/01/11 11:42:05;;;;;;;;;;;;;;;13.54;100.00;100325.53;5092038;28;20382;-75
2022/01/11 11:44:38;;;;;;;;;;;;;;;13.78;100.00;100335.75;5091778;28;19938;-74
2022/01/11 11:47:06;;;;;;;;;;;;;;;13.04;100.00;100332.69;5089184;28;19997;-76
2022/01/11 11:49:53;;;;;;;;;;;;;;;13.65;100.00;100331.84;5074070;28;19931;-77
2022/01/11 11:52:20;;;;;;;;;;;;;;;13.67;100.00;100335.03;5071184;28;19925;-78
2022/01/11 11:54:49;;;;;;;;;;;;;;;12.88;100.00;100337.94;5071010;28;19928;-76
2022/01/11 11:57:17;;;;;;;;;;;;;;;12.91;100.00;100325.91;5072588;28;20436;-76
2022/01/11 11:59:54;;;;;;;;;;;;;;;12.42;100.00;100332.53;5072207;28;20014;-76
2022/01/11 12:02:30;;;;;;;;;;;;;;;12.38;100.00;100329.75;5072191;28;19983;-76
2022/01/11 12:04:58;;;;;;;;;;;;;;;12.11;100.00;100345.44;5073545;28;20367;-75
2022/01/11 12:07:40;;;;;;;;;;;;;;;12.33;100.00;100338.56;5072465;28;19978;-78
2022/01/11 12:10:12;;;;;;;;;;;;;;;11.81;100.00;100345.09;5072471;28;20323;-75
2022/01/11 12:12:55;;;;;;;;;;;;;;;10.99;100.00;100346.16;5071385;28;20428;-75
2022/01/11 12:15:22;;;;;;;;;;;;;;;10.79;100.00;100358.09;5065627;28;19924;-76
2022/01/11 12:17:48;;;;;;;;;;;;;;;11.06;100.00;100358.59;5089820;28;19932;-77
2022/01/11 12:20:34;;;;;;;;;;;;;;;10.97;100.00;100358.94;5091038;28;19932;-76
2022/01/11 12:23:02;;;;;;;;;;;;;;;11.39;100.00;100353.44;5088873;28;19930;-76
2022/01/11 12:25:30;;;;;;;;;;;;;;;11.59;100.00;100360.25;5092826;28;20102;-76
2022/01/11 12:27:59;;;;;;;;;;;;;;;11.97;100.00;100362.25;5072406;28;19961;-76
2022/01/11 12:30:26;;;;;;;;;;;;;;;12.36;100.00;100363.00;5072244;28;19974;-79
2022/01/11 12:33:12;;;;;;;;;;;;;;;12.90;100.00;100356.00;5091387;28;19931;-77
2022/01/11 12:35:50;;;;;;;;;;;;;;;13.33;100.00;100353.75;5090579;28;20425;-79
2022/01/11 12:38:43;;;;;;;;;;;;;;;13.36;100.00;100353.72;5089829;28;19931;-79
2022/01/11 12:41:33;;;;;;;;;;;;;;;12.88;100.00;100357.59;5092279;28;19928;-78
2022/01/11 12:44:21;;;;;;;;;;;;;;;11.52;100.00;100365.84;5092626;28;19973;-78
2022/01/11 12:46:53;;;;;;;;;;;;;;;12.37;100.00;100353.38;5092241;28;19924;-78
2022/01/11 12:49:22;;;;;;;;;;;;;;;12.99;100.00;100347.91;5091194;28;20315;-78
2022/01/11 12:51:55;;;;;;;;;;;;;;;13.18;100.00;100352.22;5088783;28;19970;-77
2022/01/11 12:54:22;;;;;;;;;;;;;;;13.32;100.00;100352.16;5109909;28;19981;-75